createdAt,value
2022-12-03T00:00:24.920Z,9.418278
2022-12-03T00:01:24.915Z,9.418168
2022-12-03T00:02:25.035Z,9.418265
2022-12-03T00:03:25.076Z,9.418192
2022-12-03T00:04:24.895Z,9.418203
2022-12-03T00:05:24.883Z,9.418252
2022-12-03T00:06:25.655Z,9.418182
2022-12-03T00:07:24.901Z,9.418091
2022-12-03T00:08:24.914Z,9.418070
2022-12-03T00:09:24.879Z,9.418071
2022-12-03T00:10:24.855Z,9.418082
2022-12-03T00:11:24.851Z,9.418147
2022-12-03T00:12:24.848Z,9.418211
2022-12-03T00:13:24.854Z,9.418229
2022-12-03T00:14:24.853Z,9.418232
2022-12-03T00:15:24.800Z,9.418251
2022-12-03T00:16:24.893Z,9.418246
2022-12-03T00:17:24.870Z,9.418268
2022-12-03T00:18:24.790Z,9.418165
2022-12-03T00:19:24.799Z,9.418265
2022-12-03T00:20:24.791Z,9.418252
2022-12-03T00:21:25.776Z,9.418291
2022-12-03T00:22:24.767Z,9.418274
2022-12-03T00:23:24.758Z,9.418217
2022-12-03T00:24:24.754Z,9.418052
2022-12-03T00:25:24.753Z,9.418136
2022-12-03T00:26:24.739Z,9.418195
2022-12-03T00:27:24.735Z,9.418242
2022-12-03T00:28:24.728Z,9.418228
2022-12-03T00:29:24.714Z,9.418307
2022-12-03T00:30:24.732Z,9.418302
2022-12-03T00:31:24.733Z,9.418222
2022-12-03T00:32:24.709Z,9.418267
2022-12-03T00:33:24.750Z,9.418207
2022-12-03T00:34:24.713Z,9.418184
2022-12-03T00:35:24.670Z,9.418163
2022-12-03T00:36:24.678Z,9.418062
2022-12-03T00:37:24.665Z,9.418184
2022-12-03T00:38:24.720Z,9.418271
2022-12-03T00:39:24.652Z,9.418258
2022-12-03T00:40:24.638Z,9.418212
2022-12-03T00:41:24.683Z,9.418224
2022-12-03T00:42:24.636Z,9.418148
2022-12-03T00:43:24.610Z,9.418230
2022-12-03T00:44:24.619Z,9.418227
2022-12-03T00:45:24.614Z,9.418348
2022-12-03T00:46:24.693Z,9.418417
2022-12-03T00:47:24.581Z,9.418255
2022-12-03T00:48:24.595Z,9.418326
2022-12-03T00:49:24.581Z,9.418280
2022-12-03T00:50:24.573Z,9.418247
2022-12-03T00:51:24.593Z,9.418237
2022-12-03T00:52:24.570Z,9.418277
2022-12-03T00:53:24.552Z,9.418326
2022-12-03T00:54:29.998Z,9.418315
2022-12-03T00:55:26.550Z,9.418230
2022-12-03T00:56:24.567Z,9.418198
2022-12-03T00:57:24.544Z,9.418324
2022-12-03T00:58:24.529Z,9.418334
2022-12-03T00:59:24.518Z,9.418342
2022-12-03T01:00:24.514Z,9.418340
2022-12-03T01:01:24.565Z,9.418262
2022-12-03T01:02:24.609Z,9.418275
2022-12-03T01:03:24.485Z,9.418237
2022-12-03T01:04:24.558Z,9.418298
2022-12-03T01:05:24.468Z,9.418278
2022-12-03T01:06:24.472Z,9.418210
2022-12-03T01:07:24.574Z,9.418390
2022-12-03T01:08:24.449Z,9.418519
2022-12-03T01:09:24.448Z,9.418410
2022-12-03T01:10:24.440Z,9.418364
2022-12-03T01:11:24.433Z,9.418412
2022-12-03T01:12:24.424Z,9.418380
2022-12-03T01:13:24.444Z,9.418358
2022-12-03T01:14:24.417Z,9.418438
2022-12-03T01:15:24.397Z,9.418534
2022-12-03T01:16:24.472Z,9.418343
2022-12-03T01:17:24.385Z,9.418371
2022-12-03T01:18:24.394Z,9.418298
2022-12-03T01:19:24.381Z,9.418442
2022-12-03T01:20:24.369Z,9.418573
2022-12-03T01:21:24.377Z,9.418308
2022-12-03T01:22:24.349Z,9.418387
2022-12-03T01:23:24.354Z,9.418345
2022-12-03T01:24:24.365Z,9.418427
2022-12-03T01:25:24.349Z,9.418394
2022-12-03T01:26:24.325Z,9.418312
2022-12-03T01:27:25.328Z,9.418273
2022-12-03T01:28:24.321Z,9.418318
2022-12-03T01:29:24.320Z,9.418343
2022-12-03T01:30:24.305Z,9.418356
2022-12-03T01:31:24.367Z,9.418290
2022-12-03T01:32:24.289Z,9.418320
2022-12-03T01:33:24.281Z,9.418377
2022-12-03T01:34:24.307Z,9.418285
2022-12-03T01:35:24.275Z,9.418296
2022-12-03T01:36:24.257Z,9.418296
2022-12-03T01:37:24.265Z,9.418271
2022-12-03T01:38:24.257Z,9.418314
2022-12-03T01:39:24.246Z,9.418341
2022-12-03T01:40:24.240Z,9.418309
2022-12-03T01:41:24.248Z,9.418345
2022-12-03T01:42:24.221Z,9.418402
2022-12-03T01:43:24.221Z,9.418418
2022-12-03T01:44:24.216Z,9.418309
2022-12-03T01:45:24.213Z,9.418243
2022-12-03T01:46:24.289Z,9.418307
2022-12-03T01:47:24.197Z,9.418224
2022-12-03T01:48:24.180Z,9.418361
2022-12-03T01:49:24.168Z,9.418436
2022-12-03T01:50:24.189Z,9.418338
2022-12-03T01:51:24.189Z,9.418357
2022-12-03T01:52:24.176Z,9.418307
2022-12-03T01:53:24.149Z,9.418439
2022-12-03T01:54:24.141Z,9.418405
2022-12-03T01:55:24.133Z,9.418366
2022-12-03T01:56:24.141Z,9.418248
2022-12-03T01:57:24.156Z,9.418283
2022-12-03T01:58:24.108Z,9.418330
2022-12-03T01:59:24.108Z,9.418250
2022-12-03T02:00:24.128Z,9.418261
2022-12-03T02:01:24.139Z,9.418339
2022-12-03T02:02:24.111Z,9.418263
2022-12-03T02:03:24.069Z,9.418230
2022-12-03T02:04:25.125Z,9.418169
2022-12-03T02:05:24.077Z,9.418243
2022-12-03T02:06:24.061Z,9.418261
2022-12-03T02:07:24.160Z,9.418274
2022-12-03T02:08:24.069Z,9.418279
2022-12-03T02:09:24.037Z,9.418217
2022-12-03T02:10:24.020Z,9.418152
2022-12-03T02:11:24.036Z,9.418283
2022-12-03T02:12:24.013Z,9.418314
2022-12-03T02:13:24.020Z,9.418269
2022-12-03T02:14:24.007Z,9.418371
2022-12-03T02:15:23.995Z,9.418308
2022-12-03T02:16:24.088Z,9.418447
2022-12-03T02:17:23.993Z,9.418305
2022-12-03T02:18:23.987Z,9.418324
2022-12-03T02:19:23.973Z,9.418357
2022-12-03T02:20:23.980Z,9.418316
2022-12-03T02:21:23.961Z,9.418375
2022-12-03T02:22:23.944Z,9.418447
2022-12-03T02:23:23.948Z,9.418319
2022-12-03T02:24:23.929Z,9.418274
2022-12-03T02:25:23.925Z,9.418343
2022-12-03T02:26:23.919Z,9.418243
2022-12-03T02:27:23.916Z,9.418202
2022-12-03T02:28:23.913Z,9.418241
2022-12-03T02:29:23.895Z,9.418217
2022-12-03T02:30:23.890Z,9.418267
2022-12-03T02:31:23.937Z,9.418294
2022-12-03T02:32:23.868Z,9.418165
2022-12-03T02:33:23.880Z,9.418242
2022-12-03T02:34:23.844Z,9.418245
2022-12-03T02:35:23.852Z,9.418347
2022-12-03T02:36:23.874Z,9.418338
2022-12-03T02:37:23.854Z,9.418292
2022-12-03T02:38:23.909Z,9.418230
2022-12-03T02:39:23.838Z,9.418151
2022-12-03T02:40:23.815Z,9.418217
2022-12-03T02:41:24.821Z,9.418271
2022-12-03T02:42:23.818Z,9.418283
2022-12-03T02:43:23.823Z,9.418136
2022-12-03T02:44:23.806Z,9.418134
2022-12-03T02:45:24.328Z,9.418241
2022-12-03T02:46:23.879Z,9.418277
2022-12-03T02:47:23.779Z,9.418236
2022-12-03T02:48:23.769Z,9.418159
2022-12-03T02:49:23.785Z,9.418180
2022-12-03T02:50:24.755Z,9.418244
2022-12-03T02:51:23.757Z,9.418270
2022-12-03T02:52:23.746Z,9.418301
2022-12-03T02:53:23.742Z,9.418222
2022-12-03T02:54:23.736Z,9.418303
2022-12-03T02:55:23.727Z,9.418232
2022-12-03T02:56:23.764Z,9.418242
2022-12-03T02:57:23.724Z,9.418102
2022-12-03T02:58:23.717Z,9.418321
2022-12-03T02:59:23.692Z,9.418202
2022-12-03T03:00:23.739Z,9.418346
2022-12-03T03:01:23.784Z,9.418284
2022-12-03T03:02:23.759Z,9.418212
2022-12-03T03:03:23.726Z,9.418344
2022-12-03T03:04:23.669Z,9.418361
2022-12-03T03:05:23.667Z,9.418423
2022-12-03T03:06:23.660Z,9.418371
2022-12-03T03:07:23.842Z,9.418356
2022-12-03T03:08:23.643Z,9.418337
2022-12-03T03:09:23.628Z,9.418329
2022-12-03T03:10:23.629Z,9.418329
2022-12-03T03:11:23.616Z,9.418244
2022-12-03T03:12:23.631Z,9.418356
2022-12-03T03:13:23.608Z,9.418373
2022-12-03T03:14:23.596Z,9.418295
2022-12-03T03:15:23.594Z,9.418421
2022-12-03T03:16:23.625Z,9.418315
2022-12-03T03:17:23.572Z,9.418262
2022-12-03T03:18:23.584Z,9.418236
2022-12-03T03:19:23.598Z,9.418274
2022-12-03T03:20:23.548Z,9.418236
2022-12-03T03:21:23.536Z,9.418344
2022-12-03T03:22:23.536Z,9.418360
2022-12-03T03:23:23.530Z,9.418292
2022-12-03T03:24:23.547Z,9.418293
2022-12-03T03:25:23.524Z,9.418220
2022-12-03T03:26:23.512Z,9.418272
2022-12-03T03:27:23.509Z,9.418310
2022-12-03T03:28:23.503Z,9.418292
2022-12-03T03:29:23.491Z,9.418292
2022-12-03T03:30:23.504Z,9.418332
2022-12-03T03:31:23.559Z,9.418285
2022-12-03T03:32:23.476Z,9.418306
2022-12-03T03:33:23.466Z,9.418290
2022-12-03T03:34:23.465Z,9.418303
2022-12-03T03:35:23.475Z,9.418303
2022-12-03T03:36:23.449Z,9.418264
2022-12-03T03:37:23.444Z,9.418242
2022-12-03T03:38:23.432Z,9.418215
2022-12-03T03:39:23.427Z,9.418274
2022-12-03T03:40:23.424Z,9.418236
2022-12-03T03:41:23.452Z,9.418211
2022-12-03T03:42:23.413Z,9.418283
2022-12-03T03:43:23.401Z,9.418172
2022-12-03T03:44:23.392Z,9.418147
2022-12-03T03:45:28.815Z,9.418231
2022-12-03T03:46:25.468Z,9.418200
2022-12-03T03:47:23.368Z,9.418296
2022-12-03T03:48:24.381Z,9.418299
2022-12-03T03:49:23.367Z,9.418236
2022-12-03T03:50:23.360Z,9.418179
2022-12-03T03:51:23.359Z,9.418158
2022-12-03T03:52:23.347Z,9.418293
2022-12-03T03:53:23.327Z,9.418248
2022-12-03T03:54:23.331Z,9.418224
2022-12-03T03:55:23.328Z,9.418328
2022-12-03T03:56:23.319Z,9.418262
2022-12-03T03:57:23.328Z,9.418179
2022-12-03T03:58:23.303Z,9.418274
2022-12-03T03:59:23.288Z,9.418317
2022-12-03T04:00:23.286Z,9.418247
2022-12-03T04:01:23.327Z,9.418187
2022-12-03T04:02:23.308Z,9.418221
2022-12-03T04:03:23.268Z,9.418248
2022-12-03T04:04:23.366Z,9.418294
2022-12-03T04:05:23.251Z,9.418303
2022-12-03T04:06:23.247Z,9.418331
2022-12-03T04:07:23.243Z,9.418297
2022-12-03T04:08:23.391Z,9.418211
2022-12-03T04:09:23.232Z,9.418244
2022-12-03T04:10:23.221Z,9.418274
2022-12-03T04:11:23.211Z,9.418242
2022-12-03T04:12:24.212Z,9.418483
2022-12-03T04:13:23.231Z,9.418352
2022-12-03T04:14:23.200Z,9.418284
2022-12-03T04:15:23.199Z,9.418304
2022-12-03T04:16:23.215Z,9.418256
2022-12-03T04:17:23.180Z,9.418122
2022-12-03T04:18:23.179Z,9.418123
2022-12-03T04:19:23.188Z,9.418237
2022-12-03T04:20:23.156Z,9.418226
2022-12-03T04:21:23.163Z,9.418046
2022-12-03T04:22:23.167Z,9.418150
2022-12-03T04:23:29.288Z,9.418200
2022-12-03T04:24:24.197Z,9.418232
2022-12-03T04:25:23.148Z,9.418352
2022-12-03T04:26:23.121Z,9.418274
2022-12-03T04:27:23.135Z,9.418343
2022-12-03T04:28:23.099Z,9.418352
2022-12-03T04:29:23.099Z,9.418242
2022-12-03T04:30:23.180Z,9.418248
2022-12-03T04:31:23.139Z,9.418262
2022-12-03T04:32:23.091Z,9.418256
2022-12-03T04:33:23.071Z,9.418293
2022-12-03T04:34:23.068Z,9.418317
2022-12-03T04:35:23.133Z,9.418195
2022-12-03T04:36:23.052Z,9.418149
2022-12-03T04:37:23.048Z,9.418315
2022-12-03T04:38:23.130Z,9.418496
2022-12-03T04:39:23.036Z,9.418245
2022-12-03T04:40:23.027Z,9.418246
2022-12-03T04:41:23.023Z,9.418080
2022-12-03T04:42:23.015Z,9.418326
2022-12-03T04:43:23.019Z,9.418313
2022-12-03T04:44:23.003Z,9.418280
2022-12-03T04:45:22.991Z,9.418149
2022-12-03T04:46:23.040Z,9.418303
2022-12-03T04:47:22.979Z,9.418226
2022-12-03T04:48:22.988Z,9.418308
2022-12-03T04:49:22.974Z,9.418387
2022-12-03T04:50:22.959Z,9.418375
2022-12-03T04:51:22.955Z,9.418309
2022-12-03T04:52:22.947Z,9.418267
2022-12-03T04:53:22.938Z,9.418398
2022-12-03T04:54:22.947Z,9.418381
2022-12-03T04:55:22.939Z,9.418299
2022-12-03T04:56:22.915Z,9.418242
2022-12-03T04:57:22.924Z,9.418612
2022-12-03T04:58:22.938Z,9.418505
2022-12-03T04:59:22.903Z,9.418340
2022-12-03T05:00:22.896Z,9.418270
2022-12-03T05:01:22.979Z,9.418468
2022-12-03T05:02:22.945Z,9.418472
2022-12-03T05:03:22.875Z,9.418473
2022-12-03T05:04:22.867Z,9.418478
2022-12-03T05:05:22.862Z,9.418327
2022-12-03T05:06:22.855Z,9.418304
2022-12-03T05:07:22.877Z,9.418254
2022-12-03T05:08:22.842Z,9.418230
2022-12-03T05:09:22.845Z,9.418183
2022-12-03T05:10:22.838Z,9.418312
2022-12-03T05:11:23.779Z,9.418275
2022-12-03T05:12:22.838Z,9.418320
2022-12-03T05:13:22.812Z,9.418283
2022-12-03T05:14:22.831Z,9.418343
2022-12-03T05:15:22.794Z,9.418301
2022-12-03T05:16:22.871Z,9.418209
2022-12-03T05:17:22.774Z,9.418295
2022-12-03T05:18:22.788Z,9.418250
2022-12-03T05:19:22.775Z,9.418382
2022-12-03T05:20:22.782Z,9.418407
2022-12-03T05:21:22.771Z,9.418404
2022-12-03T05:22:22.747Z,9.418279
2022-12-03T05:23:22.738Z,9.418341
2022-12-03T05:24:22.742Z,9.418362
2022-12-03T05:25:22.726Z,9.418408
2022-12-03T05:26:22.751Z,9.418350
2022-12-03T05:27:24.117Z,9.418367
2022-12-03T05:28:23.732Z,9.418318
2022-12-03T05:29:22.773Z,9.418411
2022-12-03T05:30:22.906Z,9.418418
2022-12-03T05:31:22.760Z,9.418512
2022-12-03T05:32:22.682Z,9.418434
2022-12-03T05:33:22.679Z,9.418348
2022-12-03T05:34:22.700Z,9.418163
2022-12-03T05:35:22.670Z,9.418247
2022-12-03T05:36:22.655Z,9.418287
2022-12-03T05:37:22.648Z,9.418223
2022-12-03T05:38:22.638Z,9.418263
2022-12-03T05:39:22.667Z,9.418308
2022-12-03T05:40:22.640Z,9.418280
2022-12-03T05:41:22.628Z,9.418317
2022-12-03T05:42:22.639Z,9.418306
2022-12-03T05:43:22.626Z,9.418270
2022-12-03T05:44:22.602Z,9.418266
2022-12-03T05:45:22.601Z,9.418320
2022-12-03T05:46:22.685Z,9.418297
2022-12-03T05:47:22.602Z,9.418254
2022-12-03T05:48:22.571Z,9.418133
2022-12-03T05:49:22.595Z,9.418327
2022-12-03T05:50:22.568Z,9.418269
2022-12-03T05:51:22.587Z,9.418285
2022-12-03T05:52:22.593Z,9.418159
2022-12-03T05:53:22.551Z,9.418301
2022-12-03T05:54:22.540Z,9.418267
2022-12-03T05:55:22.559Z,9.418386
2022-12-03T05:56:22.525Z,9.418418
2022-12-03T05:57:22.520Z,9.418358
2022-12-03T05:58:22.518Z,9.418255
2022-12-03T05:59:22.510Z,9.418295
2022-12-03T06:00:22.495Z,9.418372
2022-12-03T06:01:22.483Z,9.418229
2022-12-03T06:02:22.572Z,9.418263
2022-12-03T06:03:22.640Z,9.418236
2022-12-03T06:04:22.458Z,9.418290
2022-12-03T06:05:22.465Z,9.418387
2022-12-03T06:06:22.453Z,9.418244
2022-12-03T06:07:22.452Z,9.418041
2022-12-03T06:08:22.462Z,9.418156
2022-12-03T06:09:22.445Z,9.418163
2022-12-03T06:10:22.429Z,9.418319
2022-12-03T06:11:22.421Z,9.418424
2022-12-03T06:12:22.418Z,9.418395
2022-12-03T06:13:22.410Z,9.418284
2022-12-03T06:14:22.421Z,9.418365
2022-12-03T06:15:22.398Z,9.418376
2022-12-03T06:16:22.418Z,9.418304
2022-12-03T06:17:22.386Z,9.418090
2022-12-03T06:18:22.449Z,9.418161
2022-12-03T06:19:22.382Z,9.418035
2022-12-03T06:20:22.370Z,9.418304
2022-12-03T06:21:22.365Z,9.418279
2022-12-03T06:22:22.353Z,9.418157
2022-12-03T06:23:22.346Z,9.418143
2022-12-03T06:24:22.353Z,9.417985
2022-12-03T06:25:22.324Z,9.418165
2022-12-03T06:26:22.325Z,9.418178
2022-12-03T06:27:22.319Z,9.418194
2022-12-03T06:28:22.299Z,9.417946
2022-12-03T06:29:22.331Z,9.418219
2022-12-03T06:30:22.309Z,9.418295
2022-12-03T06:31:22.439Z,9.418041
2022-12-03T06:32:22.292Z,9.418180
2022-12-03T06:33:22.269Z,9.418466
2022-12-03T06:34:23.275Z,9.418486
2022-12-03T06:35:22.271Z,9.418501
2022-12-03T06:36:23.367Z,9.418418
2022-12-03T06:37:22.251Z,9.418400
2022-12-03T06:38:22.256Z,9.418320
2022-12-03T06:39:22.386Z,9.418361
2022-12-03T06:40:22.250Z,9.418429
2022-12-03T06:41:22.221Z,9.418250
2022-12-03T06:42:22.218Z,9.418241
2022-12-03T06:43:22.199Z,9.418302
2022-12-03T06:44:23.205Z,9.418267
2022-12-03T06:45:22.200Z,9.418273
2022-12-03T06:46:22.298Z,9.418198
2022-12-03T06:47:22.178Z,9.418296
2022-12-03T06:48:22.178Z,9.418152
2022-12-03T06:49:22.229Z,9.418184
2022-12-03T06:50:22.148Z,9.418420
2022-12-03T06:51:22.157Z,9.418485
2022-12-03T06:52:22.143Z,9.418448
2022-12-03T06:53:22.142Z,9.418340
2022-12-03T06:54:22.292Z,9.418427
2022-12-03T06:55:22.161Z,9.418376
2022-12-03T06:56:22.715Z,9.418304
2022-12-03T06:57:23.139Z,9.418455
2022-12-03T06:58:22.113Z,9.418348
2022-12-03T06:59:22.102Z,9.418289
2022-12-03T07:00:22.113Z,9.418290
2022-12-03T07:01:22.113Z,9.418319
2022-12-03T07:02:22.079Z,9.418503
2022-12-03T07:03:22.162Z,9.418722
2022-12-03T07:04:22.074Z,9.418675
2022-12-03T07:05:22.067Z,9.418422
2022-12-03T07:06:22.069Z,9.418391
2022-12-03T07:07:22.054Z,9.418343
2022-12-03T07:08:22.051Z,9.418352
2022-12-03T07:09:22.047Z,9.418285
2022-12-03T07:10:22.033Z,9.418195
2022-12-03T07:11:22.039Z,9.418360
2022-12-03T07:12:22.044Z,9.418281
2022-12-03T07:13:22.034Z,9.418390
2022-12-03T07:14:22.003Z,9.418380
2022-12-03T07:15:21.999Z,9.418321
2022-12-03T07:16:22.052Z,9.418542
2022-12-03T07:17:22.005Z,9.418504
2022-12-03T07:18:21.978Z,9.418655
2022-12-03T07:19:22.863Z,9.418591
2022-12-03T07:20:21.982Z,9.418529
2022-12-03T07:21:21.971Z,9.418486
2022-12-03T07:22:21.966Z,9.418404
2022-12-03T07:23:21.970Z,9.418372
2022-12-03T07:24:21.943Z,9.418222
2022-12-03T07:25:23.635Z,9.418229
2022-12-03T07:26:22.937Z,9.418264
2022-12-03T07:27:21.921Z,9.418329
2022-12-03T07:28:21.938Z,9.418405
2022-12-03T07:29:21.921Z,9.418329
2022-12-03T07:30:21.920Z,9.418460
2022-12-03T07:31:21.980Z,9.418356
2022-12-03T07:32:21.899Z,9.418288
2022-12-03T07:33:21.881Z,9.418244
2022-12-03T07:34:22.911Z,9.418291
2022-12-03T07:35:21.879Z,9.418210
2022-12-03T07:36:21.875Z,9.418281
2022-12-03T07:37:23.489Z,9.418188
2022-12-03T07:38:22.876Z,9.418219
2022-12-03T07:39:21.954Z,9.418249
2022-12-03T07:40:21.894Z,9.418236
2022-12-03T07:41:21.878Z,9.418098
2022-12-03T07:42:21.866Z,9.418222
2022-12-03T07:43:21.822Z,9.418240
2022-12-03T07:44:21.831Z,9.418305
2022-12-03T07:45:21.834Z,9.418223
2022-12-03T07:46:21.841Z,9.418285
2022-12-03T07:47:21.811Z,9.418317
2022-12-03T07:48:21.858Z,9.418351
2022-12-03T07:49:21.793Z,9.418189
2022-12-03T07:50:21.784Z,9.418207
2022-12-03T07:51:21.810Z,9.418362
2022-12-03T07:52:21.775Z,9.418482
2022-12-03T07:53:21.758Z,9.418398
2022-12-03T07:54:21.760Z,9.418365
2022-12-03T07:55:21.749Z,9.418285
2022-12-03T07:56:21.770Z,9.418213
2022-12-03T07:57:21.780Z,9.418194
2022-12-03T07:58:21.735Z,9.418180
2022-12-03T07:59:21.714Z,9.418335
2022-12-03T08:00:21.710Z,9.418325
2022-12-03T08:01:21.769Z,9.418278
2022-12-03T08:02:22.028Z,9.418372
2022-12-03T08:03:21.687Z,9.418361
2022-12-03T08:04:22.687Z,9.418314
2022-12-03T08:05:21.685Z,9.418343
2022-12-03T08:06:21.681Z,9.418347
2022-12-03T08:07:21.685Z,9.418455
2022-12-03T08:08:21.663Z,9.418323
2022-12-03T08:09:21.663Z,9.418304
2022-12-03T08:10:21.663Z,9.418365
2022-12-03T08:11:21.671Z,9.418281
2022-12-03T08:12:21.659Z,9.418336
2022-12-03T08:13:21.644Z,9.418553
2022-12-03T08:14:21.614Z,9.418404
2022-12-03T08:15:21.623Z,9.418339
2022-12-03T08:16:21.748Z,9.418286
2022-12-03T08:17:21.604Z,9.418305
2022-12-03T08:18:21.598Z,9.418335
2022-12-03T08:19:21.590Z,9.418287
2022-12-03T08:20:21.575Z,9.418368
2022-12-03T08:21:21.576Z,9.418383
2022-12-03T08:22:21.590Z,9.418420
2022-12-03T08:23:21.622Z,9.418427
2022-12-03T08:24:21.554Z,9.418313
2022-12-03T08:25:21.549Z,9.418250
2022-12-03T08:26:21.542Z,9.418270
2022-12-03T08:27:21.551Z,9.418304
2022-12-03T08:28:21.532Z,9.418369
2022-12-03T08:29:21.530Z,9.418349
2022-12-03T08:30:21.515Z,9.418336
2022-12-03T08:31:21.581Z,9.418319
2022-12-03T08:32:21.555Z,9.418312
2022-12-03T08:33:21.509Z,9.418296
2022-12-03T08:34:21.489Z,9.418272
2022-12-03T08:35:21.523Z,9.418294
2022-12-03T08:36:21.484Z,9.418310
2022-12-03T08:37:21.470Z,9.418226
2022-12-03T08:38:21.470Z,9.418259
2022-12-03T08:39:21.464Z,9.418220
2022-12-03T08:40:21.457Z,9.418192
2022-12-03T08:41:21.447Z,9.418245
2022-12-03T08:42:21.441Z,9.418176
2022-12-03T08:43:21.466Z,9.418237
2022-12-03T08:44:21.426Z,9.418175
2022-12-03T08:45:21.417Z,9.418127
2022-12-03T08:46:21.465Z,9.418262
2022-12-03T08:47:21.399Z,9.418242
2022-12-03T08:48:21.407Z,9.418276
2022-12-03T08:49:21.396Z,9.418337
2022-12-03T08:50:21.386Z,9.418306
2022-12-03T08:51:21.374Z,9.418234
2022-12-03T08:52:21.437Z,9.418357
2022-12-03T08:53:21.371Z,9.418242
2022-12-03T08:54:21.363Z,9.418226
2022-12-03T08:55:21.355Z,9.418354
2022-12-03T08:56:21.352Z,9.418344
2022-12-03T08:57:21.352Z,9.418289
2022-12-03T08:58:21.370Z,9.418390
2022-12-03T08:59:21.342Z,9.418323
2022-12-03T09:00:21.318Z,9.418340
2022-12-03T09:01:21.380Z,9.418249
2022-12-03T09:02:21.312Z,9.418325
2022-12-03T09:03:21.294Z,9.418281
2022-12-03T09:04:21.413Z,9.418403
2022-12-03T09:05:21.294Z,9.418367
2022-12-03T09:06:21.281Z,9.418371
2022-12-03T09:07:21.273Z,9.418127
2022-12-03T09:08:21.316Z,9.418219
2022-12-03T09:09:21.270Z,9.418273
2022-12-03T09:10:21.256Z,9.417892
2022-12-03T09:11:21.247Z,9.418083
2022-12-03T09:12:21.266Z,9.418242
2022-12-03T09:13:21.241Z,9.418168
2022-12-03T09:14:21.284Z,9.418242
2022-12-03T09:15:21.223Z,9.418415
2022-12-03T09:16:21.299Z,9.418397
2022-12-03T09:17:21.234Z,9.418377
2022-12-03T09:18:21.207Z,9.418230
2022-12-03T09:19:21.193Z,9.418552
2022-12-03T09:20:21.195Z,9.418825
2022-12-03T09:21:21.215Z,9.418488
2022-12-03T09:22:21.167Z,9.418673
2022-12-03T09:23:21.190Z,9.418484
2022-12-03T09:24:21.167Z,9.418523
2022-12-03T09:25:21.181Z,9.418440
2022-12-03T09:26:21.159Z,9.418525
2022-12-03T09:27:21.164Z,9.418368
2022-12-03T09:28:21.134Z,9.418318
2022-12-03T09:29:21.133Z,9.418116
2022-12-03T09:30:21.182Z,9.418398
2022-12-03T09:31:21.141Z,9.417883
2022-12-03T09:32:21.222Z,9.417939
2022-12-03T09:33:21.109Z,9.417475
2022-12-03T09:34:21.093Z,9.417373
2022-12-03T09:35:21.096Z,9.417759
2022-12-03T09:36:21.097Z,9.418140
2022-12-03T09:37:21.132Z,9.418123
2022-12-03T09:38:21.073Z,9.418304
2022-12-03T09:39:21.068Z,9.418325
2022-12-03T09:40:21.084Z,9.418215
2022-12-03T09:41:21.051Z,9.418243
2022-12-03T09:42:21.050Z,9.418232
2022-12-03T09:43:21.030Z,9.418325
2022-12-03T09:44:21.027Z,9.418386
2022-12-03T09:45:21.024Z,9.418202
2022-12-03T09:46:21.070Z,9.418259
2022-12-03T09:47:21.011Z,9.418177
2022-12-03T09:48:21.024Z,9.418265
2022-12-03T09:49:20.991Z,9.418140
2022-12-03T09:50:21.080Z,9.418038
2022-12-03T09:51:21.983Z,9.417912
2022-12-03T09:52:20.974Z,9.418046
2022-12-03T09:53:20.971Z,9.418273
2022-12-03T09:54:20.968Z,9.418398
2022-12-03T09:55:20.957Z,9.418291
2022-12-03T09:56:20.952Z,9.418309
2022-12-03T09:57:20.954Z,9.418357
2022-12-03T09:58:20.927Z,9.418303
2022-12-03T09:59:20.939Z,9.418267
2022-12-03T10:00:20.969Z,9.418334
2022-12-03T10:01:21.009Z,9.418371
2022-12-03T10:02:20.898Z,9.418333
2022-12-03T10:03:24.108Z,9.418333
2022-12-03T10:04:21.970Z,9.418283
2022-12-03T10:05:20.936Z,9.418263
2022-12-03T10:06:20.911Z,9.418237
2022-12-03T10:07:20.892Z,9.418277
2022-12-03T10:08:20.969Z,9.418225
2022-12-03T10:09:20.914Z,9.418235
2022-12-03T10:10:20.881Z,9.418243
2022-12-03T10:11:20.852Z,9.418264
2022-12-03T10:12:20.850Z,9.418314
2022-12-03T10:13:25.487Z,9.418293
2022-12-03T10:14:22.816Z,9.418314
2022-12-03T10:15:20.841Z,9.418347
2022-12-03T10:16:21.185Z,9.418236
2022-12-03T10:17:20.811Z,9.418230
2022-12-03T10:18:20.795Z,9.418228
2022-12-03T10:19:20.800Z,9.418236
2022-12-03T10:20:20.816Z,9.418152
2022-12-03T10:21:20.815Z,9.418181
2022-12-03T10:22:20.811Z,9.418219
2022-12-03T10:23:20.785Z,9.418281
2022-12-03T10:24:20.848Z,9.418284
2022-12-03T10:25:21.264Z,9.418312
2022-12-03T10:26:20.751Z,9.418296
2022-12-03T10:27:20.748Z,9.418256
2022-12-03T10:28:20.740Z,9.418279
2022-12-03T10:29:20.761Z,9.418226
2022-12-03T10:30:20.718Z,9.418313
2022-12-03T10:31:20.778Z,9.418286
2022-12-03T10:32:20.725Z,9.418247
2022-12-03T10:33:20.708Z,9.418306
2022-12-03T10:34:20.698Z,9.418267
2022-12-03T10:35:20.711Z,9.418289
2022-12-03T10:36:20.693Z,9.418227
2022-12-03T10:37:20.689Z,9.418282
2022-12-03T10:38:20.677Z,9.418287
2022-12-03T10:39:20.658Z,9.418296
2022-12-03T10:40:20.663Z,9.418342
2022-12-03T10:41:20.678Z,9.418269
2022-12-03T10:42:20.642Z,9.418313
2022-12-03T10:43:21.638Z,9.418304
2022-12-03T10:44:20.629Z,9.418238
2022-12-03T10:45:20.617Z,9.418184
2022-12-03T10:46:20.747Z,9.418325
2022-12-03T10:47:20.794Z,9.418261
2022-12-03T10:48:20.602Z,9.418266
2022-12-03T10:49:20.599Z,9.418286
2022-12-03T10:50:20.597Z,9.418126
2022-12-03T10:51:20.582Z,9.418219
2022-12-03T10:52:25.469Z,9.418179
2022-12-03T10:53:22.585Z,9.418206
2022-12-03T10:54:20.562Z,9.418265
2022-12-03T10:55:20.557Z,9.418339
2022-12-03T10:56:20.549Z,9.418346
2022-12-03T10:57:20.571Z,9.418395
2022-12-03T10:58:20.553Z,9.418325
2022-12-03T10:59:20.528Z,9.418252
2022-12-03T11:00:20.514Z,9.418261
2022-12-03T11:01:20.564Z,9.418324
2022-12-03T11:02:20.508Z,9.418406
2022-12-03T11:03:20.543Z,9.418408
2022-12-03T11:04:20.498Z,9.418347
2022-12-03T11:05:20.497Z,9.418318
2022-12-03T11:06:20.495Z,9.418129
2022-12-03T11:07:20.470Z,9.418050
2022-12-03T11:08:20.554Z,9.418234
2022-12-03T11:09:20.466Z,9.418271
2022-12-03T11:10:20.461Z,9.418223
2022-12-03T11:11:20.457Z,9.418152
2022-12-03T11:12:20.442Z,9.418293
2022-12-03T11:13:20.464Z,9.418320
2022-12-03T11:14:23.039Z,9.418080
2022-12-03T11:15:21.426Z,9.418129
2022-12-03T11:16:20.473Z,9.418303
2022-12-03T11:17:20.410Z,9.418124
2022-12-03T11:18:20.404Z,9.418173
2022-12-03T11:19:20.395Z,9.418449
2022-12-03T11:20:22.982Z,9.418391
2022-12-03T11:21:21.381Z,9.418261
2022-12-03T11:22:20.373Z,9.418258
2022-12-03T11:23:20.385Z,9.418710
2022-12-03T11:24:20.473Z,9.418386
2022-12-03T11:25:20.360Z,9.418283
2022-12-03T11:26:20.362Z,9.418208
2022-12-03T11:27:20.357Z,9.418364
2022-12-03T11:28:20.370Z,9.418448
2022-12-03T11:29:20.345Z,9.418466
2022-12-03T11:30:20.368Z,9.418466
2022-12-03T11:31:20.417Z,9.418368
2022-12-03T11:32:20.313Z,9.418346
2022-12-03T11:33:20.345Z,9.418186
2022-12-03T11:34:20.301Z,9.418309
2022-12-03T11:35:20.305Z,9.418302
2022-12-03T11:36:36.518Z,9.418267
2022-12-03T11:37:21.305Z,9.418335
2022-12-03T11:38:20.293Z,9.418082
2022-12-03T11:39:20.273Z,9.417992
2022-12-03T11:40:20.310Z,9.418161
2022-12-03T11:41:20.263Z,9.418382
2022-12-03T11:42:20.272Z,9.418310
2022-12-03T11:43:20.262Z,9.418486
2022-12-03T11:44:20.248Z,9.418087